This is the latest recevied weather packets stored in our database for station/object KE2A-13. If no packets are shown the sender has not sent any weather packets the latest 10 day(s).
| Time | Temp. | Humidity | Pressure | Rain* | Wind** | Luminosity | Snow |
|---|---|---|---|---|---|---|---|
| 1778064300 | 15° C | 88% | 1009.5 hPa | - | - | - | - |
| 1778063400 | 15° C | 89% | 1009.5 hPa | - | - | - | - |
| 1778062500 | 14.44° C | 88% | 1009.2 hPa | - | - | - | - |
| 1778061600 | 14.44° C | 87% | 1009.1 hPa | - | - | - | - |
| 1778060700 | 14.44° C | 86% | 1009.4 hPa | - | - | - | - |
| 1778059800 | 14.44° C | 86% | 1009.3 hPa | - | - | - | - |
| 1778058900 | 15° C | 84% | 1009.4 hPa | - | - | - | - |
| 1778058001 | 15° C | 83% | 1009.4 hPa | - | - | - | - |
| 1778057100 | 15° C | 82% | 1009.5 hPa | - | - | - | - |
| 1778056200 | 15.56° C | 80% | 1009.5 hPa | - | - | - | - |
| 1778055301 | 16.11° C | 79% | 1009.6 hPa | - | - | - | - |
| 1778054400 | 16.67° C | 78% | 1009.5 hPa | - | - | - | - |
| 1778053500 | 17.22° C | 75% | 1009.6 hPa | - | - | - | - |
| 1778052600 | 18.89° C | 70% | 1009.4 hPa | - | - | - | - |
| 1778051700 | 18.89° C | 69% | 1009.6 hPa | - | - | - | - |
| 1778050800 | 18.89° C | 69% | 1009.6 hPa | - | - | - | - |
| 1778049900 | 18.89° C | 69% | 1009.7 hPa | - | - | - | - |
| 1778049000 | 18.89° C | 69% | 1009.6 hPa | - | - | - | - |
| 1778048100 | 19.44° C | 68% | 1009.6 hPa | - | - | - | - |
| 1778047200 | 19.44° C | 66% | 1009.6 hPa | - | - | - | - |
| 1778046300 | 19.44° C | 65% | 1009.7 hPa | - | - | - | - |
| 1778045400 | 19.44° C | 65% | 1009.8 hPa | - | - | - | - |
| 1778044500 | 19.44° C | 65% | 1010.1 hPa | - | - | - | - |
| 1778043600 | 20° C | 62% | 1010.1 hPa | - | - | - | - |
| 1778042700 | 20° C | 62% | 1010.1 hPa | - | - | - | - |
* Rain since midnight (hover to see other rain measurements)
** Current wind speed in m/s (hover to see current wind gust speed)